sensor_id;sensor_type;location;lat;lon;timestamp;P1;durP1;ratioP1;P2;durP2;ratioP2
68690;SDS011;55675;49.588;8.640;2022-08-21T00:00:47;5.40;;;2.77;;
68690;SDS011;55675;49.588;8.640;2022-08-21T00:03:13;3.97;;;3.10;;
68690;SDS011;55675;49.588;8.640;2022-08-21T00:05:40;4.47;;;3.20;;
68690;SDS011;55675;49.588;8.640;2022-08-21T00:08:08;3.57;;;3.00;;
68690;SDS011;55675;49.588;8.640;2022-08-21T00:10:34;4.23;;;2.67;;
68690;SDS011;55675;49.588;8.640;2022-08-21T00:13:00;2.77;;;2.57;;
68690;SDS011;55675;49.588;8.640;2022-08-21T00:15:28;3.90;;;3.17;;
68690;SDS011;55675;49.588;8.640;2022-08-21T00:17:55;3.67;;;3.00;;
68690;SDS011;55675;49.588;8.640;2022-08-21T00:20:21;3.80;;;2.90;;
68690;SDS011;55675;49.588;8.640;2022-08-21T00:22:48;4.33;;;2.80;;
68690;SDS011;55675;49.588;8.640;2022-08-21T00:25:14;3.40;;;2.80;;
68690;SDS011;55675;49.588;8.640;2022-08-21T00:27:41;4.03;;;3.63;;
68690;SDS011;55675;49.588;8.640;2022-08-21T00:30:08;3.23;;;2.93;;
68690;SDS011;55675;49.588;8.640;2022-08-21T00:32:36;4.47;;;3.63;;
68690;SDS011;55675;49.588;8.640;2022-08-21T00:35:04;4.83;;;3.77;;
68690;SDS011;55675;49.588;8.640;2022-08-21T00:37:36;3.70;;;3.30;;
68690;SDS011;55675;49.588;8.640;2022-08-21T00:40:02;4.00;;;3.50;;
68690;SDS011;55675;49.588;8.640;2022-08-21T00:42:29;4.50;;;3.37;;
68690;SDS011;55675;49.588;8.640;2022-08-21T00:44:55;5.67;;;4.10;;
68690;SDS011;55675;49.588;8.640;2022-08-21T00:47:20;3.93;;;3.57;;
68690;SDS011;55675;49.588;8.640;2022-08-21T00:49:46;5.10;;;3.57;;
68690;SDS011;55675;49.588;8.640;2022-08-21T00:52:16;4.50;;;3.77;;
68690;SDS011;55675;49.588;8.640;2022-08-21T00:54:44;4.63;;;3.23;;
68690;SDS011;55675;49.588;8.640;2022-08-21T00:57:13;6.73;;;3.90;;
68690;SDS011;55675;49.588;8.640;2022-08-21T00:59:41;3.73;;;3.33;;
68690;SDS011;55675;49.588;8.640;2022-08-21T01:02:11;4.20;;;3.30;;
68690;SDS011;55675;49.588;8.640;2022-08-21T01:04:37;3.93;;;3.37;;
68690;SDS011;55675;49.588;8.640;2022-08-21T01:07:03;3.60;;;3.30;;
68690;SDS011;55675;49.588;8.640;2022-08-21T01:09:29;4.23;;;3.50;;
68690;SDS011;55675;49.588;8.640;2022-08-21T01:11:55;5.03;;;3.50;;
68690;SDS011;55675;49.588;8.640;2022-08-21T01:14:20;3.67;;;3.30;;
68690;SDS011;55675;49.588;8.640;2022-08-21T01:16:47;3.40;;;3.07;;
68690;SDS011;55675;49.588;8.640;2022-08-21T01:19:16;3.57;;;3.27;;
68690;SDS011;55675;49.588;8.640;2022-08-21T01:21:42;4.87;;;3.90;;
68690;SDS011;55675;49.588;8.640;2022-08-21T01:24:08;4.20;;;3.70;;
68690;SDS011;55675;49.588;8.640;2022-08-21T01:26:34;3.80;;;3.40;;
68690;SDS011;55675;49.588;8.640;2022-08-21T01:29:02;4.07;;;3.30;;
68690;SDS011;55675;49.588;8.640;2022-08-21T01:31:34;3.70;;;3.33;;
68690;SDS011;55675;49.588;8.640;2022-08-21T01:34:01;4.33;;;3.23;;
68690;SDS011;55675;49.588;8.640;2022-08-21T01:36:28;3.50;;;3.20;;
68690;SDS011;55675;49.588;8.640;2022-08-21T01:38:54;3.70;;;3.40;;
68690;SDS011;55675;49.588;8.640;2022-08-21T01:41:20;3.30;;;3.00;;
68690;SDS011;55675;49.588;8.640;2022-08-21T01:43:45;3.97;;;3.40;;
68690;SDS011;55675;49.588;8.640;2022-08-21T01:46:11;4.17;;;3.40;;
68690;SDS011;55675;49.588;8.640;2022-08-21T01:48:38;3.57;;;3.27;;
68690;SDS011;55675;49.588;8.640;2022-08-21T01:51:04;4.17;;;3.60;;
68690;SDS011;55675;49.588;8.640;2022-08-21T01:53:30;4.43;;;3.43;;
68690;SDS011;55675;49.588;8.640;2022-08-21T01:56:00;4.80;;;3.77;;
68690;SDS011;55675;49.588;8.640;2022-08-21T01:58:26;3.73;;;3.33;;
68690;SDS011;55675;49.588;8.640;2022-08-21T02:00:52;3.87;;;3.47;;
68690;SDS011;55675;49.588;8.640;2022-08-21T02:03:18;3.93;;;3.50;;
68690;SDS011;55675;49.588;8.640;2022-08-21T02:05:43;3.83;;;3.50;;
68690;SDS011;55675;49.588;8.640;2022-08-21T02:08:09;5.33;;;3.87;;
68690;SDS011;55675;49.588;8.640;2022-08-21T02:10:34;4.40;;;3.40;;
68690;SDS011;55675;49.588;8.640;2022-08-21T02:13:00;4.30;;;3.70;;
68690;SDS011;55675;49.588;8.640;2022-08-21T02:15:26;4.33;;;3.93;;
68690;SDS011;55675;49.588;8.640;2022-08-21T02:17:55;5.60;;;5.13;;
68690;SDS011;55675;49.588;8.640;2022-08-21T02:20:33;6.30;;;5.03;;
68690;SDS011;55675;49.588;8.640;2022-08-21T02:23:00;4.83;;;4.10;;
68690;SDS011;55675;49.588;8.640;2022-08-21T02:25:26;5.77;;;4.73;;
68690;SDS011;55675;49.588;8.640;2022-08-21T02:27:53;5.13;;;4.60;;
68690;SDS011;55675;49.588;8.640;2022-08-21T02:30:21;6.50;;;4.10;;
68690;SDS011;55675;49.588;8.640;2022-08-21T02:32:56;5.40;;;4.43;;
68690;SDS011;55675;49.588;8.640;2022-08-21T02:35:23;5.70;;;4.87;;
68690;SDS011;55675;49.588;8.640;2022-08-21T02:37:52;5.23;;;4.63;;
68690;SDS011;55675;49.588;8.640;2022-08-21T02:40:21;6.63;;;4.80;;
68690;SDS011;55675;49.588;8.640;2022-08-21T02:42:48;4.97;;;4.00;;
68690;SDS011;55675;49.588;8.640;2022-08-21T02:45:14;5.07;;;4.30;;
68690;SDS011;55675;49.588;8.640;2022-08-21T02:47:51;6.17;;;4.27;;
68690;SDS011;55675;49.588;8.640;2022-08-21T02:50:19;4.83;;;4.10;;
68690;SDS011;55675;49.588;8.640;2022-08-21T02:52:46;5.33;;;4.03;;
68690;SDS011;55675;49.588;8.640;2022-08-21T02:55:12;3.87;;;3.57;;
68690;SDS011;55675;49.588;8.640;2022-08-21T02:57:37;6.17;;;4.20;;
68690;SDS011;55675;49.588;8.640;2022-08-21T03:00:04;4.73;;;3.93;;
68690;SDS011;55675;49.588;8.640;2022-08-21T03:02:30;4.77;;;3.90;;
68690;SDS011;55675;49.588;8.640;2022-08-21T03:04:56;4.63;;;4.17;;
68690;SDS011;55675;49.588;8.640;2022-08-21T03:07:21;5.63;;;4.10;;
68690;SDS011;55675;49.588;8.640;2022-08-21T03:09:47;5.07;;;3.93;;
68690;SDS011;55675;49.588;8.640;2022-08-21T03:12:13;5.73;;;3.60;;
68690;SDS011;55675;49.588;8.640;2022-08-21T03:14:38;5.37;;;3.77;;
68690;SDS011;55675;49.588;8.640;2022-08-21T03:17:04;4.90;;;4.13;;
68690;SDS011;55675;49.588;8.640;2022-08-21T03:19:29;4.60;;;4.03;;
68690;SDS011;55675;49.588;8.640;2022-08-21T03:21:55;5.37;;;4.00;;
68690;SDS011;55675;49.588;8.640;2022-08-21T03:24:20;4.63;;;4.10;;
68690;SDS011;55675;49.588;8.640;2022-08-21T03:26:46;5.07;;;4.23;;
68690;SDS011;55675;49.588;8.640;2022-08-21T03:29:11;4.70;;;4.20;;
68690;SDS011;55675;49.588;8.640;2022-08-21T03:31:37;4.77;;;4.23;;
68690;SDS011;55675;49.588;8.640;2022-08-21T03:34:03;5.37;;;4.17;;
68690;SDS011;55675;49.588;8.640;2022-08-21T03:36:28;6.20;;;4.50;;
68690;SDS011;55675;49.588;8.640;2022-08-21T03:38:54;6.70;;;4.73;;
68690;SDS011;55675;49.588;8.640;2022-08-21T03:41:19;5.60;;;4.40;;
68690;SDS011;55675;49.588;8.640;2022-08-21T03:43:46;6.27;;;4.57;;
68690;SDS011;55675;49.588;8.640;2022-08-21T03:46:11;6.10;;;4.00;;
68690;SDS011;55675;49.588;8.640;2022-08-21T03:48:37;5.00;;;4.33;;
68690;SDS011;55675;49.588;8.640;2022-08-21T03:51:03;4.80;;;4.30;;
68690;SDS011;55675;49.588;8.640;2022-08-21T03:53:29;5.37;;;4.20;;
68690;SDS011;55675;49.588;8.640;2022-08-21T03:55:55;5.13;;;4.47;;
68690;SDS011;55675;49.588;8.640;2022-08-21T03:58:22;4.83;;;4.33;;
68690;SDS011;55675;49.588;8.640;2022-08-21T04:00:50;5.00;;;4.50;;
68690;SDS011;55675;49.588;8.640;2022-08-21T04:03:17;5.50;;;4.30;;
68690;SDS011;55675;49.588;8.640;2022-08-21T04:05:43;8.63;;;5.97;;
68690;SDS011;55675;49.588;8.640;2022-08-21T04:08:11;5.37;;;4.50;;
68690;SDS011;55675;49.588;8.640;2022-08-21T04:10:38;6.97;;;5.70;;
68690;SDS011;55675;49.588;8.640;2022-08-21T04:13:05;5.93;;;5.43;;
68690;SDS011;55675;49.588;8.640;2022-08-21T04:15:31;7.07;;;6.07;;
68690;SDS011;55675;49.588;8.640;2022-08-21T04:17:58;5.47;;;4.97;;
68690;SDS011;55675;49.588;8.640;2022-08-21T04:20:24;6.60;;;5.40;;
68690;SDS011;55675;49.588;8.640;2022-08-21T04:22:50;6.23;;;5.50;;
68690;SDS011;55675;49.588;8.640;2022-08-21T04:25:16;6.07;;;5.47;;
68690;SDS011;55675;49.588;8.640;2022-08-21T04:27:43;5.57;;;5.07;;
68690;SDS011;55675;49.588;8.640;2022-08-21T04:30:10;7.33;;;5.30;;
68690;SDS011;55675;49.588;8.640;2022-08-21T04:32:37;7.27;;;5.33;;
68690;SDS011;55675;49.588;8.640;2022-08-21T04:35:04;7.77;;;5.40;;
68690;SDS011;55675;49.588;8.640;2022-08-21T04:37:33;6.50;;;5.07;;
68690;SDS011;55675;49.588;8.640;2022-08-21T04:39:58;5.80;;;5.03;;
68690;SDS011;55675;49.588;8.640;2022-08-21T04:42:25;5.73;;;5.10;;
68690;SDS011;55675;49.588;8.640;2022-08-21T04:44:50;5.83;;;5.33;;
68690;SDS011;55675;49.588;8.640;2022-08-21T04:47:16;7.67;;;5.50;;
68690;SDS011;55675;49.588;8.640;2022-08-21T04:49:42;6.43;;;5.60;;
68690;SDS011;55675;49.588;8.640;2022-08-21T04:52:09;7.87;;;6.03;;
68690;SDS011;55675;49.588;8.640;2022-08-21T04:54:35;7.10;;;6.40;;
68690;SDS011;55675;49.588;8.640;2022-08-21T04:57:04;6.13;;;5.53;;
68690;SDS011;55675;49.588;8.640;2022-08-21T04:59:39;6.90;;;5.80;;
68690;SDS011;55675;49.588;8.640;2022-08-21T05:02:07;6.10;;;5.50;;
68690;SDS011;55675;49.588;8.640;2022-08-21T05:04:34;6.57;;;5.33;;
68690;SDS011;55675;49.588;8.640;2022-08-21T05:07:04;6.60;;;5.60;;
68690;SDS011;55675;49.588;8.640;2022-08-21T05:09:31;8.43;;;6.20;;
68690;SDS011;55675;49.588;8.640;2022-08-21T05:11:58;6.23;;;5.60;;
68690;SDS011;55675;49.588;8.640;2022-08-21T05:14:25;6.83;;;6.07;;
68690;SDS011;55675;49.588;8.640;2022-08-21T05:16:52;5.93;;;5.40;;
68690;SDS011;55675;49.588;8.640;2022-08-21T05:19:17;6.87;;;5.57;;
68690;SDS011;55675;49.588;8.640;2022-08-21T05:21:43;7.70;;;6.07;;
68690;SDS011;55675;49.588;8.640;2022-08-21T05:24:10;5.67;;;5.10;;
68690;SDS011;55675;49.588;8.640;2022-08-21T05:26:37;8.10;;;5.07;;
68690;SDS011;55675;49.588;8.640;2022-08-21T05:29:03;6.33;;;4.97;;
68690;SDS011;55675;49.588;8.640;2022-08-21T05:31:29;6.50;;;5.37;;
68690;SDS011;55675;49.588;8.640;2022-08-21T05:33:55;6.53;;;5.13;;
68690;SDS011;55675;49.588;8.640;2022-08-21T05:36:21;5.77;;;5.17;;
68690;SDS011;55675;49.588;8.640;2022-08-21T05:38:47;5.50;;;4.70;;
68690;SDS011;55675;49.588;8.640;2022-08-21T05:41:12;5.13;;;4.63;;
68690;SDS011;55675;49.588;8.640;2022-08-21T05:43:38;5.17;;;4.47;;
68690;SDS011;55675;49.588;8.640;2022-08-21T05:46:04;5.83;;;4.30;;
68690;SDS011;55675;49.588;8.640;2022-08-21T05:48:31;6.10;;;5.40;;
68690;SDS011;55675;49.588;8.640;2022-08-21T05:50:58;7.53;;;5.60;;
68690;SDS011;55675;49.588;8.640;2022-08-21T05:53:30;6.30;;;5.70;;
68690;SDS011;55675;49.588;8.640;2022-08-21T05:55:55;6.87;;;5.40;;
68690;SDS011;55675;49.588;8.640;2022-08-21T05:58:21;6.63;;;5.90;;
68690;SDS011;55675;49.588;8.640;2022-08-21T06:00:47;7.23;;;6.13;;
68690;SDS011;55675;49.588;8.640;2022-08-21T06:03:34;5.73;;;5.13;;
68690;SDS011;55675;49.588;8.640;2022-08-21T06:06:01;6.13;;;5.53;;
68690;SDS011;55675;49.588;8.640;2022-08-21T06:08:27;6.67;;;5.20;;
68690;SDS011;55675;49.588;8.640;2022-08-21T06:10:55;5.63;;;5.13;;
68690;SDS011;55675;49.588;8.640;2022-08-21T06:13:22;5.30;;;4.80;;
68690;SDS011;55675;49.588;8.640;2022-08-21T06:15:49;6.50;;;4.67;;
68690;SDS011;55675;49.588;8.640;2022-08-21T06:18:15;5.93;;;4.37;;
68690;SDS011;55675;49.588;8.640;2022-08-21T06:20:41;7.80;;;4.80;;
68690;SDS011;55675;49.588;8.640;2022-08-21T06:23:07;4.70;;;4.07;;
68690;SDS011;55675;49.588;8.640;2022-08-21T06:25:33;5.10;;;4.40;;
68690;SDS011;55675;49.588;8.640;2022-08-21T06:28:06;5.03;;;4.50;;
68690;SDS011;55675;49.588;8.640;2022-08-21T06:30:33;5.03;;;4.30;;
68690;SDS011;55675;49.588;8.640;2022-08-21T06:33:01;4.50;;;4.10;;
68690;SDS011;55675;49.588;8.640;2022-08-21T06:35:28;7.20;;;4.57;;
68690;SDS011;55675;49.588;8.640;2022-08-21T06:37:54;5.77;;;4.47;;
68690;SDS011;55675;49.588;8.640;2022-08-21T06:40:20;6.00;;;4.27;;
68690;SDS011;55675;49.588;8.640;2022-08-21T06:42:46;4.17;;;3.87;;
68690;SDS011;55675;49.588;8.640;2022-08-21T06:45:12;4.93;;;3.90;;
68690;SDS011;55675;49.588;8.640;2022-08-21T06:47:37;4.80;;;3.97;;
68690;SDS011;55675;49.588;8.640;2022-08-21T06:50:04;4.70;;;4.07;;
68690;SDS011;55675;49.588;8.640;2022-08-21T06:52:32;5.73;;;4.17;;
68690;SDS011;55675;49.588;8.640;2022-08-21T06:54:58;5.70;;;4.03;;
68690;SDS011;55675;49.588;8.640;2022-08-21T06:57:23;5.03;;;4.30;;
68690;SDS011;55675;49.588;8.640;2022-08-21T06:59:50;5.10;;;3.97;;
68690;SDS011;55675;49.588;8.640;2022-08-21T07:02:16;4.70;;;4.30;;
68690;SDS011;55675;49.588;8.640;2022-08-21T07:04:41;4.23;;;3.50;;
68690;SDS011;55675;49.588;8.640;2022-08-21T07:07:07;4.87;;;3.80;;
68690;SDS011;55675;49.588;8.640;2022-08-21T07:09:32;5.50;;;4.00;;
68690;SDS011;55675;49.588;8.640;2022-08-21T07:11:58;5.13;;;3.90;;
68690;SDS011;55675;49.588;8.640;2022-08-21T07:14:23;5.80;;;4.23;;
68690;SDS011;55675;49.588;8.640;2022-08-21T07:16:49;5.37;;;4.27;;
68690;SDS011;55675;49.588;8.640;2022-08-21T07:19:16;4.90;;;4.30;;
68690;SDS011;55675;49.588;8.640;2022-08-21T07:21:41;4.90;;;4.10;;
68690;SDS011;55675;49.588;8.640;2022-08-21T07:24:07;4.33;;;3.93;;
68690;SDS011;55675;49.588;8.640;2022-08-21T07:26:33;4.37;;;3.70;;
68690;SDS011;55675;49.588;8.640;2022-08-21T07:28:59;4.20;;;3.80;;
68690;SDS011;55675;49.588;8.640;2022-08-21T07:31:24;8.10;;;4.40;;
68690;SDS011;55675;49.588;8.640;2022-08-21T07:33:51;6.00;;;4.03;;
68690;SDS011;55675;49.588;8.640;2022-08-21T07:36:16;5.87;;;4.10;;
68690;SDS011;55675;49.588;8.640;2022-08-21T07:38:42;4.50;;;3.87;;
68690;SDS011;55675;49.588;8.640;2022-08-21T07:41:18;3.83;;;3.40;;
68690;SDS011;55675;49.588;8.640;2022-08-21T07:43:50;7.43;;;4.67;;
68690;SDS011;55675;49.588;8.640;2022-08-21T07:46:16;4.10;;;3.60;;
68690;SDS011;55675;49.588;8.640;2022-08-21T07:48:42;6.30;;;4.10;;
68690;SDS011;55675;49.588;8.640;2022-08-21T07:51:09;5.80;;;4.10;;
68690;SDS011;55675;49.588;8.640;2022-08-21T07:53:36;5.80;;;4.30;;
68690;SDS011;55675;49.588;8.640;2022-08-21T07:56:02;4.43;;;3.87;;
68690;SDS011;55675;49.588;8.640;2022-08-21T07:58:30;6.57;;;3.93;;
68690;SDS011;55675;49.588;8.640;2022-08-21T08:00:56;4.57;;;3.67;;
68690;SDS011;55675;49.588;8.640;2022-08-21T08:03:21;5.43;;;4.10;;
68690;SDS011;55675;49.588;8.640;2022-08-21T08:05:47;6.20;;;4.70;;
68690;SDS011;55675;49.588;8.640;2022-08-21T08:08:13;4.30;;;3.90;;
68690;SDS011;55675;49.588;8.640;2022-08-21T08:10:38;4.33;;;3.93;;
68690;SDS011;55675;49.588;8.640;2022-08-21T08:13:04;6.37;;;4.40;;
68690;SDS011;55675;49.588;8.640;2022-08-21T08:15:30;5.53;;;4.90;;
68690;SDS011;55675;49.588;8.640;2022-08-21T08:17:55;5.90;;;4.70;;
68690;SDS011;55675;49.588;8.640;2022-08-21T08:20:22;5.97;;;4.60;;
68690;SDS011;55675;49.588;8.640;2022-08-21T08:22:49;6.70;;;4.63;;
68690;SDS011;55675;49.588;8.640;2022-08-21T08:25:16;4.93;;;4.40;;
68690;SDS011;55675;49.588;8.640;2022-08-21T08:27:42;6.33;;;4.70;;
68690;SDS011;55675;49.588;8.640;2022-08-21T08:30:08;7.30;;;4.47;;
68690;SDS011;55675;49.588;8.640;2022-08-21T08:32:36;6.00;;;4.50;;
68690;SDS011;55675;49.588;8.640;2022-08-21T08:35:02;5.60;;;4.47;;
68690;SDS011;55675;49.588;8.640;2022-08-21T08:37:29;6.40;;;4.90;;
68690;SDS011;55675;49.588;8.640;2022-08-21T08:39:54;5.50;;;4.53;;
68690;SDS011;55675;49.588;8.640;2022-08-21T08:42:23;6.97;;;4.73;;
68690;SDS011;55675;49.588;8.640;2022-08-21T08:44:56;6.57;;;4.63;;
68690;SDS011;55675;49.588;8.640;2022-08-21T08:47:25;6.83;;;4.50;;
68690;SDS011;55675;49.588;8.640;2022-08-21T08:49:58;5.83;;;3.90;;
68690;SDS011;55675;49.588;8.640;2022-08-21T08:52:33;6.30;;;4.33;;
68690;SDS011;55675;49.588;8.640;2022-08-21T08:55:13;4.80;;;4.30;;
68690;SDS011;55675;49.588;8.640;2022-08-21T08:57:53;4.97;;;4.00;;
68690;SDS011;55675;49.588;8.640;2022-08-21T09:00:20;5.10;;;4.20;;
68690;SDS011;55675;49.588;8.640;2022-08-21T09:02:47;4.17;;;3.73;;
68690;SDS011;55675;49.588;8.640;2022-08-21T09:16:11;5.43;;;4.53;;
68690;SDS011;55675;49.588;8.640;2022-08-21T09:19:06;5.37;;;4.37;;
68690;SDS011;55675;49.588;8.640;2022-08-21T09:21:48;4.77;;;4.00;;
68690;SDS011;55675;49.588;8.640;2022-08-21T09:27:22;6.77;;;4.07;;
68690;SDS011;55675;49.588;8.640;2022-08-21T09:29:48;5.13;;;4.17;;
68690;SDS011;55675;49.588;8.640;2022-08-21T09:32:18;4.63;;;3.67;;
68690;SDS011;55675;49.588;8.640;2022-08-21T09:37:31;5.13;;;3.60;;
68690;SDS011;55675;49.588;8.640;2022-08-21T09:39:59;6.67;;;3.63;;
68690;SDS011;55675;49.588;8.640;2022-08-21T09:42:28;4.10;;;3.20;;
68690;SDS011;55675;49.588;8.640;2022-08-21T09:45:08;4.00;;;3.30;;
68690;SDS011;55675;49.588;8.640;2022-08-21T09:47:36;3.93;;;3.23;;
68690;SDS011;55675;49.588;8.640;2022-08-21T09:50:10;5.43;;;3.40;;
68690;SDS011;55675;49.588;8.640;2022-08-21T09:52:41;4.60;;;2.77;;
68690;SDS011;55675;49.588;8.640;2022-08-21T09:55:13;5.37;;;2.50;;
68690;SDS011;55675;49.588;8.640;2022-08-21T09:58:03;3.80;;;2.43;;
68690;SDS011;55675;49.588;8.640;2022-08-21T10:00:31;4.47;;;3.10;;
68690;SDS011;55675;49.588;8.640;2022-08-21T10:03:08;4.40;;;3.00;;
68690;SDS011;55675;49.588;8.640;2022-08-21T10:05:33;4.77;;;2.03;;
68690;SDS011;55675;49.588;8.640;2022-08-21T10:08:00;4.27;;;2.57;;
68690;SDS011;55675;49.588;8.640;2022-08-21T10:10:28;4.33;;;2.30;;
68690;SDS011;55675;49.588;8.640;2022-08-21T10:18:12;4.83;;;2.97;;
68690;SDS011;55675;49.588;8.640;2022-08-21T10:21:22;4.13;;;2.63;;
68690;SDS011;55675;49.588;8.640;2022-08-21T10:37:01;4.73;;;2.90;;
68690;SDS011;55675;49.588;8.640;2022-08-21T10:39:48;5.67;;;2.63;;
68690;SDS011;55675;49.588;8.640;2022-08-21T10:42:38;3.27;;;2.60;;
68690;SDS011;55675;49.588;8.640;2022-08-21T10:45:28;4.60;;;2.67;;
68690;SDS011;55675;49.588;8.640;2022-08-21T10:51:22;3.40;;;2.80;;
68690;SDS011;55675;49.588;8.640;2022-08-21T10:54:11;4.77;;;2.90;;
68690;SDS011;55675;49.588;8.640;2022-08-21T10:56:44;5.77;;;2.93;;
68690;SDS011;55675;49.588;8.640;2022-08-21T11:01:59;3.60;;;2.87;;
68690;SDS011;55675;49.588;8.640;2022-08-21T11:07:16;5.47;;;2.93;;
68690;SDS011;55675;49.588;8.640;2022-08-21T11:10:18;3.40;;;2.70;;
68690;SDS011;55675;49.588;8.640;2022-08-21T11:13:33;3.67;;;2.50;;
68690;SDS011;55675;49.588;8.640;2022-08-21T11:15:43;3.60;;;2.60;;
68690;SDS011;55675;49.588;8.640;2022-08-21T11:23:50;3.97;;;2.53;;
68690;SDS011;55675;49.588;8.640;2022-08-21T11:26:28;3.67;;;2.30;;
68690;SDS011;55675;49.588;8.640;2022-08-21T11:29:16;3.87;;;2.50;;
68690;SDS011;55675;49.588;8.640;2022-08-21T11:37:21;1.90;;;1.80;;
68690;SDS011;55675;49.588;8.640;2022-08-21T11:40:16;3.00;;;2.17;;
68690;SDS011;55675;49.588;8.640;2022-08-21T11:45:55;2.97;;;1.87;;
68690;SDS011;55675;49.588;8.640;2022-08-21T11:51:15;2.67;;;1.90;;
68690;SDS011;55675;49.588;8.640;2022-08-21T11:53:58;3.07;;;1.80;;
68690;SDS011;55675;49.588;8.640;2022-08-21T11:56:48;1.93;;;1.73;;
68690;SDS011;55675;49.588;8.640;2022-08-21T11:59:23;3.00;;;1.83;;
68690;SDS011;55675;49.588;8.640;2022-08-21T12:01:59;2.43;;;1.83;;
68690;SDS011;55675;49.588;8.640;2022-08-21T12:04:29;3.03;;;2.00;;
68690;SDS011;55675;49.588;8.640;2022-08-21T12:07:16;2.47;;;1.50;;
68690;SDS011;55675;49.588;8.640;2022-08-21T12:09:54;2.83;;;1.90;;
68690;SDS011;55675;49.588;8.640;2022-08-21T12:12:29;3.20;;;1.77;;
68690;SDS011;55675;49.588;8.640;2022-08-21T12:17:57;2.43;;;1.90;;
68690;SDS011;55675;49.588;8.640;2022-08-21T12:23:02;4.20;;;1.90;;
68690;SDS011;55675;49.588;8.640;2022-08-21T12:25:44;3.00;;;2.03;;
68690;SDS011;55675;49.588;8.640;2022-08-21T12:28:23;3.00;;;1.90;;
68690;SDS011;55675;49.588;8.640;2022-08-21T12:30:50;4.00;;;1.83;;
68690;SDS011;55675;49.588;8.640;2022-08-21T12:33:34;3.57;;;2.00;;
68690;SDS011;55675;49.588;8.640;2022-08-21T12:36:15;2.83;;;2.10;;
68690;SDS011;55675;49.588;8.640;2022-08-21T12:38:50;2.40;;;1.90;;
68690;SDS011;55675;49.588;8.640;2022-08-21T12:41:30;3.97;;;2.37;;
68690;SDS011;55675;49.588;8.640;2022-08-21T12:44:21;3.97;;;2.17;;
68690;SDS011;55675;49.588;8.640;2022-08-21T12:46:56;2.93;;;2.10;;
68690;SDS011;55675;49.588;8.640;2022-08-21T12:49:28;4.80;;;2.40;;
68690;SDS011;55675;49.588;8.640;2022-08-21T12:54:39;3.67;;;2.50;;
68690;SDS011;55675;49.588;8.640;2022-08-21T12:57:07;4.00;;;2.10;;
68690;SDS011;55675;49.588;8.640;2022-08-21T12:59:41;3.80;;;2.47;;
68690;SDS011;55675;49.588;8.640;2022-08-21T13:02:28;2.53;;;2.10;;
68690;SDS011;55675;49.588;8.640;2022-08-21T13:04:54;4.07;;;2.07;;
68690;SDS011;55675;49.588;8.640;2022-08-21T13:07:28;3.57;;;2.50;;
68690;SDS011;55675;49.588;8.640;2022-08-21T13:10:07;2.10;;;1.90;;
68690;SDS011;55675;49.588;8.640;2022-08-21T13:12:38;2.43;;;2.20;;
68690;SDS011;55675;49.588;8.640;2022-08-21T13:15:06;2.90;;;2.30;;
68690;SDS011;55675;49.588;8.640;2022-08-21T13:17:34;2.47;;;2.20;;
68690;SDS011;55675;49.588;8.640;2022-08-21T13:20:09;3.57;;;2.30;;
68690;SDS011;55675;49.588;8.640;2022-08-21T13:22:45;3.50;;;2.30;;
68690;SDS011;55675;49.588;8.640;2022-08-21T13:25:15;3.03;;;2.10;;
68690;SDS011;55675;49.588;8.640;2022-08-21T13:27:43;3.13;;;2.07;;
68690;SDS011;55675;49.588;8.640;2022-08-21T13:30:22;4.37;;;2.47;;
68690;SDS011;55675;49.588;8.640;2022-08-21T13:32:49;3.55;;;2.95;;
68690;SDS011;55675;49.588;8.640;2022-08-21T13:35:18;6.53;;;2.80;;
68690;SDS011;55675;49.588;8.640;2022-08-21T13:37:50;3.00;;;2.30;;
68690;SDS011;55675;49.588;8.640;2022-08-21T13:40:19;3.45;;;2.20;;
68690;SDS011;55675;49.588;8.640;2022-08-21T13:42:49;3.60;;;2.25;;
68690;SDS011;55675;49.588;8.640;2022-08-21T13:45:17;2.60;;;2.40;;
68690;SDS011;55675;49.588;8.640;2022-08-21T13:47:47;3.03;;;2.15;;
68690;SDS011;55675;49.588;8.640;2022-08-21T13:50:13;3.35;;;1.92;;
68690;SDS011;55675;49.588;8.640;2022-08-21T13:52:48;5.45;;;2.40;;
68690;SDS011;55675;49.588;8.640;2022-08-21T13:55:20;2.30;;;2.10;;
68690;SDS011;55675;49.588;8.640;2022-08-21T13:57:46;2.72;;;2.05;;
68690;SDS011;55675;49.588;8.640;2022-08-21T14:00:18;3.45;;;2.70;;
68690;SDS011;55675;49.588;8.640;2022-08-21T14:27:55;3.58;;;2.15;;
68690;SDS011;55675;49.588;8.640;2022-08-21T14:30:25;3.38;;;2.22;;
68690;SDS011;55675;49.588;8.640;2022-08-21T14:32:57;3.70;;;2.25;;
68690;SDS011;55675;49.588;8.640;2022-08-21T14:35:24;4.15;;;2.60;;
68690;SDS011;55675;49.588;8.640;2022-08-21T14:37:50;3.33;;;2.00;;
68690;SDS011;55675;49.588;8.640;2022-08-21T14:40:17;2.72;;;2.10;;
68690;SDS011;55675;49.588;8.640;2022-08-21T14:42:44;2.75;;;2.05;;
68690;SDS011;55675;49.588;8.640;2022-08-21T14:45:29;1.92;;;1.70;;
68690;SDS011;55675;49.588;8.640;2022-08-21T14:47:56;2.03;;;1.83;;
68690;SDS011;55675;49.588;8.640;2022-08-21T14:50:22;2.22;;;2.00;;
68690;SDS011;55675;49.588;8.640;2022-08-21T14:52:48;2.25;;;2.05;;
68690;SDS011;55675;49.588;8.640;2022-08-21T14:55:14;3.08;;;1.90;;
68690;SDS011;55675;49.588;8.640;2022-08-21T14:57:44;3.58;;;2.20;;
68690;SDS011;55675;49.588;8.640;2022-08-21T15:00:13;3.55;;;2.10;;
68690;SDS011;55675;49.588;8.640;2022-08-21T15:02:41;3.08;;;2.03;;
68690;SDS011;55675;49.588;8.640;2022-08-21T15:05:07;2.70;;;1.70;;
68690;SDS011;55675;49.588;8.640;2022-08-21T15:07:33;2.42;;;2.22;;
68690;SDS011;55675;49.588;8.640;2022-08-21T15:09:59;2.75;;;2.03;;
68690;SDS011;55675;49.588;8.640;2022-08-21T15:12:24;3.65;;;2.10;;
68690;SDS011;55675;49.588;8.640;2022-08-21T15:14:50;3.55;;;1.92;;
68690;SDS011;55675;49.588;8.640;2022-08-21T15:17:16;3.33;;;2.00;;
68690;SDS011;55675;49.588;8.640;2022-08-21T15:19:42;2.53;;;1.80;;
68690;SDS011;55675;49.588;8.640;2022-08-21T15:22:07;2.10;;;1.90;;
68690;SDS011;55675;49.588;8.640;2022-08-21T15:24:33;2.58;;;1.90;;
68690;SDS011;55675;49.588;8.640;2022-08-21T15:27:00;3.45;;;1.90;;
68690;SDS011;55675;49.588;8.640;2022-08-21T15:29:29;2.47;;;2.22;;
68690;SDS011;55675;49.588;8.640;2022-08-21T15:31:56;3.22;;;2.00;;
68690;SDS011;55675;49.588;8.640;2022-08-21T15:34:24;3.80;;;2.00;;
68690;SDS011;55675;49.588;8.640;2022-08-21T15:36:52;4.47;;;2.30;;
68690;SDS011;55675;49.588;8.640;2022-08-21T15:39:18;3.55;;;1.85;;
68690;SDS011;55675;49.588;8.640;2022-08-21T15:41:44;4.45;;;2.08;;
68690;SDS011;55675;49.588;8.640;2022-08-21T15:44:10;2.10;;;1.70;;
68690;SDS011;55675;49.588;8.640;2022-08-21T15:46:37;1.80;;;1.70;;
68690;SDS011;55675;49.588;8.640;2022-08-21T15:49:03;2.95;;;2.10;;
68690;SDS011;55675;49.588;8.640;2022-08-21T15:51:29;3.83;;;1.83;;
68690;SDS011;55675;49.588;8.640;2022-08-21T15:53:54;2.90;;;1.98;;
68690;SDS011;55675;49.588;8.640;2022-08-21T15:56:21;2.80;;;1.80;;
68690;SDS011;55675;49.588;8.640;2022-08-21T15:58:49;2.58;;;1.75;;
68690;SDS011;55675;49.588;8.640;2022-08-21T16:01:17;1.98;;;1.80;;
68690;SDS011;55675;49.588;8.640;2022-08-21T16:03:43;2.20;;;1.65;;
68690;SDS011;55675;49.588;8.640;2022-08-21T16:06:13;2.10;;;1.90;;
68690;SDS011;55675;49.588;8.640;2022-08-21T16:08:39;2.58;;;1.92;;
68690;SDS011;55675;49.588;8.640;2022-08-21T16:11:04;2.20;;;1.90;;
68690;SDS011;55675;49.588;8.640;2022-08-21T16:13:34;2.30;;;1.80;;
68690;SDS011;55675;49.588;8.640;2022-08-21T16:16:07;2.28;;;1.70;;
68690;SDS011;55675;49.588;8.640;2022-08-21T16:18:34;3.15;;;1.90;;
68690;SDS011;55675;49.588;8.640;2022-08-21T16:20:59;3.40;;;2.20;;
68690;SDS011;55675;49.588;8.640;2022-08-21T16:23:25;4.20;;;2.10;;
68690;SDS011;55675;49.588;8.640;2022-08-21T16:25:51;2.90;;;2.03;;
68690;SDS011;55675;49.588;8.640;2022-08-21T16:28:17;3.75;;;1.90;;
68690;SDS011;55675;49.588;8.640;2022-08-21T16:30:46;2.03;;;1.80;;
68690;SDS011;55675;49.588;8.640;2022-08-21T16:33:32;2.17;;;1.83;;